createdAt,value
2018-07-22T00:00:42.582Z,20.20
2018-07-22T00:01:42.574Z,20.28
2018-07-22T00:02:42.563Z,20.18
2018-07-22T00:03:42.564Z,20.26
2018-07-22T00:04:42.539Z,20.35
2018-07-22T00:05:42.532Z,20.32
2018-07-22T00:06:42.522Z,20.29
2018-07-22T00:07:42.530Z,20.28
2018-07-22T00:08:42.497Z,20.24
2018-07-22T00:09:42.484Z,20.26
2018-07-22T00:10:42.476Z,20.23
2018-07-22T00:11:42.463Z,20.18
2018-07-22T00:12:42.455Z,20.24
2018-07-22T00:13:42.454Z,20.18
2018-07-22T00:14:42.435Z,20.20
2018-07-22T00:15:42.440Z,20.17
2018-07-22T00:16:42.409Z,20.21
2018-07-22T00:17:42.401Z,20.21
2018-07-22T00:18:42.390Z,20.14
2018-07-22T00:19:42.379Z,20.20
2018-07-22T00:20:42.368Z,20.18
2018-07-22T00:21:42.368Z,20.28
2018-07-22T00:22:42.346Z,20.23
2018-07-22T00:23:42.332Z,20.24
2018-07-22T00:24:42.322Z,20.23
2018-07-22T00:25:42.333Z,20.21
2018-07-22T00:26:42.302Z,20.21
2018-07-22T00:27:42.292Z,20.24
2018-07-22T00:28:42.281Z,20.21
2018-07-22T00:29:42.273Z,20.20
2018-07-22T00:30:42.257Z,20.26
2018-07-22T00:31:42.258Z,20.24
2018-07-22T00:32:42.247Z,20.23
2018-07-22T00:33:42.235Z,20.21
2018-07-22T00:34:42.217Z,20.17
2018-07-22T00:35:42.205Z,20.13
2018-07-22T00:36:42.195Z,20.10
2018-07-22T00:37:42.181Z,20.10
2018-07-22T00:38:42.194Z,20.16
2018-07-22T00:39:42.163Z,20.11
2018-07-22T00:40:42.149Z,20.20
2018-07-22T00:41:42.142Z,20.16
2018-07-22T00:42:42.128Z,20.17
2018-07-22T00:43:42.115Z,20.16
2018-07-22T00:44:42.120Z,20.13
2018-07-22T00:45:42.099Z,20.08
2018-07-22T00:46:42.085Z,20.17
2018-07-22T00:47:42.076Z,20.10
2018-07-22T00:48:42.063Z,20.17
2018-07-22T00:49:42.094Z,20.06
2018-07-22T00:50:42.041Z,20.13
2018-07-22T00:51:42.031Z,20.10
2018-07-22T00:52:42.023Z,20.14
2018-07-22T00:53:42.007Z,20.10
2018-07-22T00:54:41.996Z,20.05
2018-07-22T00:55:42.000Z,20.10
2018-07-22T00:56:41.975Z,20.14
2018-07-22T00:57:41.967Z,20.20
2018-07-22T00:58:41.954Z,20.13
2018-07-22T00:59:41.946Z,20.16
2018-07-22T01:00:41.949Z,20.17
2018-07-22T01:01:41.936Z,20.17
2018-07-22T01:02:45.012Z,20.17
2018-07-22T01:03:41.899Z,20.20
2018-07-22T01:04:41.889Z,20.16
2018-07-22T01:05:41.905Z,20.16
2018-07-22T01:06:41.870Z,20.10
2018-07-22T01:07:41.858Z,20.18
2018-07-22T01:08:41.846Z,20.11
2018-07-22T01:09:41.837Z,20.10
2018-07-22T01:10:41.824Z,20.18
2018-07-22T01:11:41.853Z,20.11
2018-07-22T01:12:41.806Z,20.05
2018-07-22T01:13:41.791Z,20.14
2018-07-22T01:14:41.781Z,20.16
2018-07-22T01:15:41.772Z,20.13
2018-07-22T01:16:41.760Z,20.17
2018-07-22T01:17:41.767Z,20.17
2018-07-22T01:18:41.737Z,20.13
2018-07-22T01:19:41.744Z,20.13
2018-07-22T01:20:41.716Z,20.17
2018-07-22T01:21:41.727Z,20.13
2018-07-22T01:22:41.696Z,20.06
2018-07-22T01:23:41.686Z,20.14
2018-07-22T01:24:41.675Z,20.17
2018-07-22T01:25:41.663Z,20.14
2018-07-22T01:26:41.655Z,20.17
2018-07-22T01:27:41.655Z,20.17
2018-07-22T01:28:41.628Z,20.17
2018-07-22T01:29:41.621Z,20.10
2018-07-22T01:30:41.608Z,20.11
2018-07-22T01:31:41.599Z,20.11
2018-07-22T01:32:41.602Z,20.11
2018-07-22T01:33:41.578Z,20.05
2018-07-22T01:34:41.568Z,20.08
2018-07-22T01:35:41.553Z,19.99
2018-07-22T01:36:41.567Z,20.13
2018-07-22T01:37:41.537Z,20.03
2018-07-22T01:38:41.524Z,19.98
2018-07-22T01:39:41.514Z,20.03
2018-07-22T01:40:41.501Z,20.03
2018-07-22T01:41:41.489Z,20.01
2018-07-22T01:42:41.506Z,20.05
2018-07-22T01:43:41.467Z,20.03
2018-07-22T01:44:41.457Z,20.06
2018-07-22T01:45:41.448Z,20.06
2018-07-22T01:46:41.435Z,20.06
2018-07-22T01:47:41.427Z,20.02
2018-07-22T01:48:41.428Z,19.99
2018-07-22T01:49:41.408Z,20.02
2018-07-22T01:50:41.394Z,20.06
2018-07-22T01:51:41.385Z,19.99
2018-07-22T01:52:41.373Z,20.03
2018-07-22T01:53:41.372Z,20.01
2018-07-22T01:54:41.351Z,20.05
2018-07-22T01:55:41.338Z,20.02
2018-07-22T01:56:41.330Z,20.03
2018-07-22T01:57:41.340Z,20.05
2018-07-22T01:58:41.310Z,20.02
2018-07-22T01:59:41.295Z,20.17
2018-07-22T02:00:41.286Z,20.02
2018-07-22T02:01:41.303Z,20.03
2018-07-22T02:02:41.265Z,20.16
2018-07-22T02:03:41.263Z,20.10
2018-07-22T02:04:41.255Z,20.06
2018-07-22T02:05:41.233Z,20.01
2018-07-22T02:06:41.223Z,20.05
2018-07-22T02:07:41.212Z,20.06
2018-07-22T02:08:41.213Z,19.92
2018-07-22T02:09:41.187Z,19.84
2018-07-22T02:10:41.176Z,19.91
2018-07-22T02:11:41.167Z,19.86
2018-07-22T02:12:41.155Z,19.83
2018-07-22T02:13:41.160Z,19.76
2018-07-22T02:14:41.137Z,19.62
2018-07-22T02:15:41.125Z,19.68
2018-07-22T02:16:41.127Z,19.65
2018-07-22T02:17:41.103Z,19.65
2018-07-22T02:18:41.093Z,19.61
2018-07-22T02:19:41.082Z,19.68
2018-07-22T02:20:41.072Z,19.69
2018-07-22T02:21:41.072Z,19.73
2018-07-22T02:22:41.051Z,19.77
2018-07-22T02:23:41.035Z,19.76
2018-07-22T02:24:41.028Z,19.62
2018-07-22T02:25:41.028Z,19.68
2018-07-22T02:26:41.003Z,19.62
2018-07-22T02:27:40.992Z,19.62
2018-07-22T02:28:40.981Z,19.59
2018-07-22T02:29:40.972Z,19.63
2018-07-22T02:30:40.982Z,19.66
2018-07-22T02:31:40.949Z,19.62
2018-07-22T02:32:40.941Z,19.68
2018-07-22T02:33:40.933Z,19.68
2018-07-22T02:34:40.920Z,19.76
2018-07-22T02:35:40.906Z,19.61
2018-07-22T02:36:40.911Z,19.58
2018-07-22T02:37:40.900Z,19.65
2018-07-22T02:38:40.874Z,19.54
2018-07-22T02:39:40.863Z,19.63
2018-07-22T02:40:40.854Z,19.50
2018-07-22T02:41:40.841Z,19.47
2018-07-22T02:42:40.849Z,19.50
2018-07-22T02:43:40.833Z,19.55
2018-07-22T02:44:40.808Z,19.47
2018-07-22T02:45:40.796Z,19.47
2018-07-22T02:46:40.788Z,19.48
2018-07-22T02:47:40.792Z,19.43
2018-07-22T02:48:40.785Z,19.51
2018-07-22T02:49:40.766Z,19.47
2018-07-22T02:50:40.749Z,19.50
2018-07-22T02:51:40.734Z,19.50
2018-07-22T02:52:40.766Z,19.39
2018-07-22T02:53:40.715Z,19.43
2018-07-22T02:54:40.702Z,19.48
2018-07-22T02:55:40.690Z,19.48
2018-07-22T02:56:40.685Z,19.48
2018-07-22T02:57:40.670Z,19.48
2018-07-22T02:58:40.672Z,19.46
2018-07-22T02:59:40.663Z,19.48
2018-07-22T03:00:40.639Z,19.46
2018-07-22T03:01:40.627Z,19.44
2018-07-22T03:02:40.634Z,19.37
2018-07-22T03:03:40.605Z,19.36
2018-07-22T03:04:40.597Z,19.31
2018-07-22T03:05:40.587Z,19.29
2018-07-22T03:06:40.574Z,19.31
2018-07-22T03:07:40.564Z,19.23
2018-07-22T03:08:40.580Z,19.32
2018-07-22T03:09:40.541Z,19.23
2018-07-22T03:10:40.532Z,19.33
2018-07-22T03:11:40.519Z,19.33
2018-07-22T03:12:40.526Z,19.37
2018-07-22T03:13:40.498Z,19.33
2018-07-22T03:14:40.484Z,19.43
2018-07-22T03:15:40.476Z,19.31
2018-07-22T03:16:40.470Z,19.37
2018-07-22T03:17:40.461Z,19.43
2018-07-22T03:18:40.456Z,19.41
2018-07-22T03:19:40.436Z,19.46
2018-07-22T03:20:40.420Z,19.54
2018-07-22T03:21:40.425Z,19.54
2018-07-22T03:22:40.402Z,19.54
2018-07-22T03:23:40.406Z,19.51
2018-07-22T03:24:40.376Z,19.48
2018-07-22T03:25:40.368Z,19.50
2018-07-22T03:26:40.359Z,19.51
2018-07-22T03:27:40.347Z,19.50
2018-07-22T03:28:40.336Z,19.39
2018-07-22T03:29:40.337Z,19.50
2018-07-22T03:30:40.313Z,19.46
2018-07-22T03:31:40.304Z,19.40
2018-07-22T03:32:40.291Z,19.47
2018-07-22T03:33:40.279Z,19.44
2018-07-22T03:34:40.284Z,19.47
2018-07-22T03:35:40.261Z,19.48
2018-07-22T03:36:40.249Z,19.50
2018-07-22T03:37:40.248Z,19.43
2018-07-22T03:38:40.230Z,19.47
2018-07-22T03:39:40.234Z,19.48
2018-07-22T03:40:40.225Z,19.33
2018-07-22T03:41:40.194Z,19.44
2018-07-22T03:42:40.184Z,19.48
2018-07-22T03:43:40.175Z,19.50
2018-07-22T03:44:40.163Z,19.46
2018-07-22T03:45:40.155Z,19.43
2018-07-22T03:46:40.153Z,19.44
2018-07-22T03:47:40.148Z,19.36
2018-07-22T03:48:40.120Z,19.40
2018-07-22T03:49:40.112Z,19.37
2018-07-22T03:50:40.100Z,19.39
2018-07-22T03:51:40.105Z,19.37
2018-07-22T03:52:40.077Z,19.33
2018-07-22T03:53:40.067Z,19.36
2018-07-22T03:54:40.058Z,19.37
2018-07-22T03:55:40.047Z,19.32
2018-07-22T03:56:40.046Z,19.39
2018-07-22T03:57:40.027Z,19.32
2018-07-22T03:58:40.011Z,19.37
2018-07-22T03:59:40.006Z,19.39
2018-07-22T04:00:39.993Z,19.37
2018-07-22T04:01:39.997Z,19.32
2018-07-22T04:02:39.971Z,19.31
2018-07-22T04:03:39.960Z,19.37
2018-07-22T04:04:39.946Z,19.36
2018-07-22T04:05:39.936Z,19.26
2018-07-22T04:06:39.967Z,19.31
2018-07-22T04:07:39.915Z,19.29
2018-07-22T04:08:39.907Z,19.21
2018-07-22T04:09:39.896Z,19.23
2018-07-22T04:10:39.882Z,19.25
2018-07-22T04:11:39.873Z,19.26
2018-07-22T04:12:39.894Z,19.18
2018-07-22T04:13:39.852Z,19.11
2018-07-22T04:14:39.841Z,19.10
2018-07-22T04:15:39.828Z,19.10
2018-07-22T04:16:39.821Z,19.13
2018-07-22T04:17:39.809Z,19.11
2018-07-22T04:18:39.813Z,19.10
2018-07-22T04:19:39.783Z,19.11
2018-07-22T04:20:39.775Z,19.00
2018-07-22T04:21:39.764Z,19.13
2018-07-22T04:22:39.773Z,19.06
2018-07-22T04:23:39.742Z,19.13
2018-07-22T04:24:39.733Z,19.07
2018-07-22T04:25:39.723Z,19.08
2018-07-22T04:26:39.710Z,19.13
2018-07-22T04:27:39.699Z,19.10
2018-07-22T04:28:39.706Z,19.11
2018-07-22T04:29:39.680Z,19.07
2018-07-22T04:30:39.669Z,19.07
2018-07-22T04:31:39.670Z,19.10
2018-07-22T04:32:39.647Z,19.10
2018-07-22T04:33:39.655Z,19.00
2018-07-22T04:34:39.630Z,19.00
2018-07-22T04:35:39.614Z,19.00
2018-07-22T04:36:39.602Z,19.00
2018-07-22T04:37:39.593Z,19.13
2018-07-22T04:38:39.583Z,19.06
2018-07-22T04:39:39.611Z,19.00
2018-07-22T04:40:39.561Z,19.04
2018-07-22T04:41:39.553Z,19.13
2018-07-22T04:42:39.540Z,18.95
2018-07-22T04:43:39.525Z,19.02
2018-07-22T04:44:39.518Z,19.08
2018-07-22T04:45:39.518Z,19.00
2018-07-22T04:46:39.496Z,18.98
2018-07-22T04:47:39.485Z,18.99
2018-07-22T04:48:39.477Z,18.98
2018-07-22T04:49:39.469Z,18.95
2018-07-22T04:50:39.465Z,18.94
2018-07-22T04:51:39.440Z,18.87
2018-07-22T04:52:39.432Z,18.91
2018-07-22T04:53:39.496Z,18.92
2018-07-22T04:54:39.408Z,18.85
2018-07-22T04:55:39.413Z,18.92
2018-07-22T04:56:39.386Z,18.87
2018-07-22T04:57:39.377Z,18.82
2018-07-22T04:58:39.367Z,18.85
2018-07-22T04:59:39.354Z,18.91
2018-07-22T05:00:39.357Z,18.90
2018-07-22T05:01:39.333Z,18.82
2018-07-22T05:02:39.322Z,18.87
2018-07-22T05:03:39.311Z,18.91
2018-07-22T05:04:39.314Z,18.92
2018-07-22T05:05:39.289Z,18.95
2018-07-22T05:06:39.281Z,18.95
2018-07-22T05:07:39.269Z,18.91
2018-07-22T05:08:39.260Z,18.91
2018-07-22T05:09:39.260Z,18.88
2018-07-22T05:10:39.240Z,18.91
2018-07-22T05:11:39.225Z,18.94
2018-07-22T05:12:39.215Z,18.92
2018-07-22T05:13:39.218Z,18.94
2018-07-22T05:14:39.196Z,18.87
2018-07-22T05:15:39.201Z,18.92
2018-07-22T05:16:39.172Z,18.90
2018-07-22T05:17:39.164Z,18.92
2018-07-22T05:18:39.152Z,18.85
2018-07-22T05:19:39.141Z,18.94
2018-07-22T05:20:39.144Z,18.84
2018-07-22T05:21:39.121Z,18.90
2018-07-22T05:22:39.110Z,18.85
2018-07-22T05:23:39.096Z,18.84
2018-07-22T05:24:39.089Z,18.94
2018-07-22T05:25:39.092Z,18.92
2018-07-22T05:26:39.080Z,18.80
2018-07-22T05:27:39.056Z,18.80
2018-07-22T05:28:39.060Z,18.73
2018-07-22T05:29:39.033Z,18.84
2018-07-22T05:30:39.024Z,18.80
2018-07-22T05:31:39.011Z,18.88
2018-07-22T05:32:39.017Z,18.80
2018-07-22T05:33:38.991Z,18.81
2018-07-22T05:34:38.982Z,18.69
2018-07-22T05:35:38.971Z,18.85
2018-07-22T05:36:38.972Z,18.87
2018-07-22T05:37:38.947Z,18.90
2018-07-22T05:38:38.954Z,18.91
2018-07-22T05:39:38.925Z,18.95
2018-07-22T05:40:38.915Z,18.92
2018-07-22T05:41:38.904Z,19.02
2018-07-22T05:42:38.895Z,19.02
2018-07-22T05:43:38.903Z,18.99
2018-07-22T05:44:38.871Z,19.14
2018-07-22T05:45:38.865Z,19.10
2018-07-22T05:46:38.851Z,19.08
2018-07-22T05:47:38.841Z,19.19
2018-07-22T05:48:38.831Z,19.16
2018-07-22T05:49:38.833Z,19.33
2018-07-22T05:50:38.805Z,19.33
2018-07-22T05:51:38.797Z,19.37
2018-07-22T05:52:38.784Z,19.44
2018-07-22T05:53:38.796Z,19.47
2018-07-22T05:54:38.765Z,19.50
2018-07-22T05:55:38.752Z,19.43
2018-07-22T05:56:38.740Z,19.46
2018-07-22T05:57:38.733Z,19.48
2018-07-22T05:58:38.722Z,19.51
2018-07-22T05:59:38.723Z,19.63
2018-07-22T06:00:38.702Z,19.76
2018-07-22T06:01:38.690Z,19.88
2018-07-22T06:02:38.676Z,19.91
2018-07-22T06:03:38.667Z,20.01
2018-07-22T06:04:38.670Z,20.03
2018-07-22T06:05:38.644Z,20.17
2018-07-22T06:06:38.633Z,20.18
2018-07-22T06:07:38.623Z,20.31
2018-07-22T06:08:38.611Z,20.48
2018-07-22T06:09:38.602Z,20.42
2018-07-22T06:10:38.602Z,20.54
2018-07-22T06:11:38.583Z,20.52
2018-07-22T06:12:38.567Z,20.59
2018-07-22T06:13:38.559Z,20.58
2018-07-22T06:14:38.588Z,20.57
2018-07-22T06:15:38.536Z,20.62
2018-07-22T06:16:38.569Z,20.57
2018-07-22T06:17:38.564Z,20.59
2018-07-22T06:18:38.503Z,20.73
2018-07-22T06:19:38.495Z,20.72
2018-07-22T06:20:38.498Z,20.82
2018-07-22T06:21:38.470Z,20.95
2018-07-22T06:22:38.460Z,20.82
2018-07-22T06:23:38.449Z,20.88
2018-07-22T06:24:38.441Z,20.84
2018-07-22T06:25:38.440Z,20.84
2018-07-22T06:26:38.418Z,20.91
2018-07-22T06:27:38.405Z,20.99
2018-07-22T06:28:38.410Z,20.98
2018-07-22T06:29:38.386Z,20.99
2018-07-22T06:30:38.374Z,20.94
2018-07-22T06:31:38.385Z,21.06
2018-07-22T06:32:38.351Z,21.03
2018-07-22T06:33:38.341Z,20.97
2018-07-22T06:34:38.329Z,20.97
2018-07-22T06:35:38.321Z,20.92
2018-07-22T06:36:38.308Z,20.91
2018-07-22T06:37:38.313Z,20.91
2018-07-22T06:38:38.305Z,20.98
2018-07-22T06:39:38.277Z,21.14
2018-07-22T06:40:38.264Z,21.06
2018-07-22T06:41:38.253Z,21.13
2018-07-22T06:42:38.245Z,21.16
2018-07-22T06:43:38.234Z,21.10
2018-07-22T06:44:38.264Z,21.07
2018-07-22T06:45:38.213Z,21.09
2018-07-22T06:46:38.292Z,21.27
2018-07-22T06:47:38.191Z,21.37
2018-07-22T06:48:38.177Z,21.47
2018-07-22T06:49:38.166Z,21.59
2018-07-22T06:50:38.170Z,21.56
2018-07-22T06:51:38.147Z,21.54
2018-07-22T06:52:38.141Z,21.61
2018-07-22T06:53:38.192Z,21.44
2018-07-22T06:54:38.128Z,21.52
2018-07-22T06:55:38.104Z,21.42
2018-07-22T06:56:38.107Z,21.38
2018-07-22T06:57:38.079Z,21.31
2018-07-22T06:58:38.071Z,21.40
2018-07-22T06:59:38.056Z,21.46
2018-07-22T07:00:38.061Z,21.64
2018-07-22T07:01:38.057Z,21.72
2018-07-22T07:02:38.025Z,21.82
2018-07-22T07:03:38.015Z,22.02
2018-07-22T07:04:38.004Z,22.09
2018-07-22T07:05:37.996Z,22.24
2018-07-22T07:06:37.982Z,22.24
2018-07-22T07:07:37.985Z,22.52
2018-07-22T07:08:38.001Z,22.54
2018-07-22T07:09:37.957Z,22.77
2018-07-22T07:10:37.943Z,22.92
2018-07-22T07:11:37.929Z,23.10
2018-07-22T07:12:37.937Z,23.07
2018-07-22T07:13:37.910Z,23.28
2018-07-22T07:14:37.905Z,23.51
2018-07-22T07:15:37.889Z,23.72
2018-07-22T07:16:37.877Z,23.69
2018-07-22T07:17:37.865Z,23.91
2018-07-22T07:18:37.869Z,24.22
2018-07-22T07:19:37.845Z,24.62
2018-07-22T07:20:37.832Z,24.99
2018-07-22T07:21:37.820Z,25.32
2018-07-22T07:22:37.849Z,25.52
2018-07-22T07:23:37.799Z,25.76
2018-07-22T07:24:37.789Z,26.06
2018-07-22T07:25:37.778Z,26.12
2018-07-22T07:26:37.815Z,26.05
2018-07-22T07:27:37.757Z,26.32
2018-07-22T07:28:37.760Z,26.48
2018-07-22T07:29:37.735Z,26.69
2018-07-22T07:30:37.729Z,26.81
2018-07-22T07:31:37.716Z,26.99
2018-07-22T07:32:37.709Z,26.10
2018-07-22T07:33:37.745Z,25.47
2018-07-22T07:34:37.683Z,25.38
2018-07-22T07:35:37.678Z,25.91
2018-07-22T07:36:37.665Z,24.95
2018-07-22T07:37:37.654Z,25.23
2018-07-22T07:38:37.646Z,25.35
2018-07-22T07:39:37.646Z,25.94
2018-07-22T07:40:37.620Z,26.50
2018-07-22T07:41:37.617Z,27.04
2018-07-22T07:42:37.601Z,26.75
2018-07-22T07:43:37.590Z,26.10
2018-07-22T07:44:37.591Z,26.21
2018-07-22T07:45:37.583Z,25.94
2018-07-22T07:46:37.564Z,25.79
2018-07-22T07:47:37.548Z,25.73
2018-07-22T07:48:37.538Z,26.05
2018-07-22T07:49:37.525Z,26.43
2018-07-22T07:50:37.514Z,26.47
2018-07-22T07:51:37.530Z,26.43
2018-07-22T07:52:37.492Z,26.10
2018-07-22T07:53:37.484Z,26.39
2018-07-22T07:54:37.475Z,26.65
2018-07-22T07:55:37.460Z,26.48
2018-07-22T07:56:37.454Z,26.30
2018-07-22T07:57:37.457Z,26.26
2018-07-22T07:58:37.433Z,26.37
2018-07-22T07:59:37.421Z,26.39
2018-07-22T08:00:37.408Z,26.50
2018-07-22T08:01:37.422Z,26.44
2018-07-22T08:02:37.388Z,26.51
2018-07-22T08:03:37.379Z,26.87
2018-07-22T08:04:37.368Z,27.18
2018-07-22T08:05:37.414Z,27.28
2018-07-22T08:06:37.355Z,26.88
2018-07-22T08:07:37.350Z,26.92
2018-07-22T08:08:37.329Z,27.10
2018-07-22T08:09:37.312Z,27.29
2018-07-22T08:10:37.302Z,27.40
2018-07-22T08:11:37.349Z,27.59
2018-07-22T08:12:37.281Z,27.88
2018-07-22T08:13:37.270Z,27.97
2018-07-22T08:14:37.262Z,27.94
2018-07-22T08:15:37.252Z,28.00
2018-07-22T08:16:37.245Z,28.14
2018-07-22T08:17:37.245Z,28.09
2018-07-22T08:18:37.231Z,28.22
2018-07-22T08:19:37.209Z,28.29
2018-07-22T08:20:37.199Z,28.48
2018-07-22T08:21:37.267Z,28.58
2018-07-22T08:22:37.178Z,28.67
2018-07-22T08:23:37.183Z,28.68
2018-07-22T08:24:37.157Z,28.58
2018-07-22T08:25:37.144Z,28.34
2018-07-22T08:26:37.138Z,28.18
2018-07-22T08:27:37.137Z,27.90
2018-07-22T08:28:37.133Z,27.49
2018-07-22T08:29:37.103Z,27.50
2018-07-22T08:30:37.141Z,27.21
2018-07-22T08:31:37.083Z,26.69
2018-07-22T08:32:37.088Z,26.69
2018-07-22T08:33:37.060Z,26.65
2018-07-22T08:34:37.068Z,26.97
2018-07-22T08:35:37.043Z,27.07
2018-07-22T08:36:37.034Z,27.17
2018-07-22T08:37:37.022Z,26.77
2018-07-22T08:38:37.012Z,26.52
2018-07-22T08:39:37.024Z,26.26
2018-07-22T08:40:36.988Z,26.37
2018-07-22T08:41:37.071Z,26.66
2018-07-22T08:42:36.968Z,27.10
2018-07-22T08:43:36.959Z,27.41
2018-07-22T08:44:36.946Z,27.60
2018-07-22T08:45:36.950Z,27.85
2018-07-22T08:46:36.928Z,28.07
2018-07-22T08:47:36.929Z,28.11
2018-07-22T08:48:36.910Z,28.03
2018-07-22T08:49:36.897Z,28.21
2018-07-22T08:50:36.897Z,28.37
2018-07-22T08:51:36.875Z,28.24
2018-07-22T08:52:36.867Z,28.24
2018-07-22T08:53:36.856Z,28.29
2018-07-22T08:54:36.848Z,28.52
2018-07-22T08:55:36.850Z,28.73
2018-07-22T08:56:36.837Z,28.93
2018-07-22T08:57:36.812Z,28.90
2018-07-22T08:58:36.802Z,29.19
2018-07-22T08:59:36.792Z,29.39
2018-07-22T09:00:36.796Z,29.46
2018-07-22T09:01:36.773Z,29.60
2018-07-22T09:02:36.764Z,29.64
2018-07-22T09:03:36.751Z,29.31
2018-07-22T09:04:36.755Z,29.39
2018-07-22T09:05:36.735Z,29.46
2018-07-22T09:06:36.721Z,29.57
2018-07-22T09:07:36.727Z,29.74
2018-07-22T09:08:36.702Z,29.92
2018-07-22T09:09:36.691Z,29.85
2018-07-22T09:10:36.686Z,29.98
2018-07-22T09:11:36.705Z,29.98
2018-07-22T09:12:36.701Z,29.68
2018-07-22T09:13:36.648Z,29.61
2018-07-22T09:14:36.643Z,29.46
2018-07-22T09:15:36.632Z,29.58
2018-07-22T09:16:36.625Z,29.61
2018-07-22T09:17:36.615Z,29.73
2018-07-22T09:18:36.620Z,29.83
2018-07-22T09:19:36.594Z,29.79
2018-07-22T09:20:36.582Z,29.94
2018-07-22T09:21:36.572Z,29.78
2018-07-22T09:22:36.561Z,29.82
2018-07-22T09:23:36.552Z,29.82
2018-07-22T09:24:36.959Z,30.07
2018-07-22T09:25:36.529Z,30.16
2018-07-22T09:26:36.521Z,30.29
2018-07-22T09:27:36.512Z,30.26
2018-07-22T09:28:36.499Z,30.45
2018-07-22T09:29:36.491Z,30.37
2018-07-22T09:30:36.504Z,30.46
2018-07-22T09:31:36.470Z,30.43
2018-07-22T09:32:36.459Z,30.34
2018-07-22T09:33:36.449Z,30.34
2018-07-22T09:34:36.439Z,30.27
2018-07-22T09:35:36.428Z,30.17
2018-07-22T09:36:36.490Z,30.24
2018-07-22T09:37:36.411Z,30.38
2018-07-22T09:38:36.399Z,30.51
2018-07-22T09:39:36.401Z,30.46
2018-07-22T09:40:36.380Z,30.49
2018-07-22T09:41:36.384Z,30.55
2018-07-22T09:42:36.358Z,30.64
2018-07-22T09:43:36.351Z,30.49
2018-07-22T09:44:36.342Z,30.37
2018-07-22T09:45:36.329Z,30.13
2018-07-22T09:46:36.336Z,30.05
2018-07-22T09:47:36.309Z,29.83
2018-07-22T09:48:36.305Z,29.78
2018-07-22T09:49:36.289Z,29.82
2018-07-22T09:50:36.283Z,29.94
2018-07-22T09:51:36.292Z,30.13
2018-07-22T09:52:36.261Z,30.27
2018-07-22T09:53:36.290Z,30.43
2018-07-22T09:54:36.242Z,30.34
2018-07-22T09:55:36.232Z,30.34
2018-07-22T09:56:36.219Z,30.31
2018-07-22T09:57:36.251Z,30.38
2018-07-22T09:58:36.262Z,30.39
2018-07-22T09:59:36.189Z,30.47
2018-07-22T10:00:36.179Z,30.46
2018-07-22T10:01:36.174Z,30.47
2018-07-22T10:02:36.162Z,30.47
2018-07-22T10:03:36.164Z,30.60
2018-07-22T10:04:36.186Z,30.70
2018-07-22T10:05:36.136Z,30.70
2018-07-22T10:06:36.122Z,30.51
2018-07-22T10:07:36.113Z,30.51
2018-07-22T10:08:36.120Z,30.69
2018-07-22T10:09:36.097Z,30.94
2018-07-22T10:10:36.089Z,31.06
2018-07-22T10:11:36.074Z,31.13
2018-07-22T10:12:36.084Z,31.09
2018-07-22T10:13:36.049Z,31.10
2018-07-22T10:14:36.103Z,31.20
2018-07-22T10:15:36.035Z,31.36
2018-07-22T10:16:36.024Z,31.47
2018-07-22T10:17:36.066Z,31.53
2018-07-22T10:18:36.025Z,31.53
2018-07-22T10:19:35.995Z,31.46
2018-07-22T10:20:36.003Z,31.56
2018-07-22T10:21:35.977Z,31.61
2018-07-22T10:22:35.963Z,31.50
2018-07-22T10:23:35.955Z,31.41
2018-07-22T10:24:35.945Z,31.62
2018-07-22T10:25:35.942Z,31.69
2018-07-22T10:26:35.940Z,31.62
2018-07-22T10:27:35.913Z,31.47
2018-07-22T10:28:35.947Z,31.54
2018-07-22T10:29:35.911Z,31.69
2018-07-22T10:30:35.886Z,31.84
2018-07-22T10:31:35.878Z,31.70
2018-07-22T10:32:35.864Z,31.76
2018-07-22T10:33:35.857Z,31.84
2018-07-22T10:34:35.864Z,31.91
2018-07-22T10:35:35.837Z,32.03
2018-07-22T10:36:35.825Z,32.07
2018-07-22T10:37:35.820Z,32.11
2018-07-22T10:38:35.805Z,32.23
2018-07-22T10:39:35.796Z,32.23
2018-07-22T10:40:35.803Z,32.26
2018-07-22T10:41:35.788Z,32.25
2018-07-22T10:42:35.767Z,32.30
2018-07-22T10:43:35.772Z,32.25
2018-07-22T10:44:35.747Z,32.33
2018-07-22T10:45:35.737Z,32.30
2018-07-22T10:46:35.863Z,31.93
2018-07-22T10:47:35.721Z,31.69
2018-07-22T10:48:35.711Z,31.73
2018-07-22T10:49:35.715Z,31.92
2018-07-22T10:50:35.691Z,31.92
2018-07-22T10:51:35.736Z,32.23
2018-07-22T10:52:35.686Z,32.33
2018-07-22T10:53:35.658Z,32.45
2018-07-22T10:54:35.651Z,32.45
2018-07-22T10:55:35.644Z,32.30
2018-07-22T10:56:35.632Z,32.28
2018-07-22T10:57:35.653Z,32.47
2018-07-22T10:58:35.613Z,32.45
2018-07-22T10:59:35.602Z,32.55
2018-07-22T11:00:35.595Z,32.55
2018-07-22T11:01:35.585Z,32.63
2018-07-22T11:02:35.573Z,32.75
2018-07-22T11:03:35.579Z,32.67
2018-07-22T11:04:35.555Z,32.62
2018-07-22T11:05:35.548Z,32.59
2018-07-22T11:06:35.538Z,32.62
2018-07-22T11:07:35.529Z,32.65
2018-07-22T11:08:35.543Z,32.81
2018-07-22T11:09:35.509Z,32.94
2018-07-22T11:10:35.500Z,32.89
2018-07-22T11:11:35.488Z,32.96
2018-07-22T11:12:35.479Z,32.99
2018-07-22T11:13:35.470Z,33.00
2018-07-22T11:14:35.495Z,33.04
2018-07-22T11:15:35.452Z,32.99
2018-07-22T11:16:35.445Z,33.09
2018-07-22T11:17:35.431Z,33.15
2018-07-22T11:18:35.427Z,33.21
2018-07-22T11:19:35.415Z,33.26
2018-07-22T11:20:35.420Z,33.16
2018-07-22T11:21:35.400Z,33.18
2018-07-22T11:22:35.389Z,33.15
2018-07-22T11:23:35.379Z,33.16
2018-07-22T11:24:35.383Z,33.07
2018-07-22T11:25:35.358Z,33.16
2018-07-22T11:26:35.348Z,33.16
2018-07-22T11:27:35.339Z,33.28
2018-07-22T11:28:35.366Z,33.23
2018-07-22T11:29:35.319Z,33.15
2018-07-22T11:30:35.309Z,33.26
2018-07-22T11:31:35.302Z,33.47
2018-07-22T11:32:35.320Z,33.34
2018-07-22T11:33:35.283Z,33.34
2018-07-22T11:34:35.269Z,33.42
2018-07-22T11:35:35.263Z,33.44
2018-07-22T11:36:35.249Z,33.47
2018-07-22T11:37:35.243Z,33.56
2018-07-22T11:38:35.244Z,33.57
2018-07-22T11:39:35.223Z,33.03
2018-07-22T11:40:35.213Z,32.60
2018-07-22T11:41:35.206Z,32.23
2018-07-22T11:42:35.194Z,32.23
2018-07-22T11:43:35.206Z,32.44
2018-07-22T11:44:35.176Z,32.67
2018-07-22T11:45:35.167Z,32.81
2018-07-22T11:46:35.160Z,32.99
2018-07-22T11:47:35.153Z,33.03
2018-07-22T11:48:35.139Z,33.09
2018-07-22T11:49:35.148Z,33.06
2018-07-22T11:50:35.172Z,33.18
2018-07-22T11:51:35.112Z,33.32
2018-07-22T11:52:35.103Z,33.41
2018-07-22T11:53:35.098Z,33.51
2018-07-22T11:54:35.084Z,33.53
2018-07-22T11:55:35.088Z,33.57
2018-07-22T11:56:35.064Z,33.61
2018-07-22T11:57:35.055Z,33.84
2018-07-22T11:58:35.045Z,33.88
2018-07-22T11:59:35.037Z,33.75
2018-07-22T12:00:35.041Z,33.84
2018-07-22T12:01:35.081Z,33.87
2018-07-22T12:02:35.011Z,33.97
2018-07-22T12:03:35.003Z,33.95
2018-07-22T12:04:34.990Z,33.87
2018-07-22T12:05:35.000Z,33.84
2018-07-22T12:06:34.975Z,33.79
2018-07-22T12:07:34.987Z,33.50
2018-07-22T12:08:34.954Z,33.49
2018-07-22T12:09:34.943Z,33.50
2018-07-22T12:10:34.949Z,33.29
2018-07-22T12:11:34.923Z,33.16
2018-07-22T12:12:35.011Z,33.06
2018-07-22T12:13:34.907Z,33.03
2018-07-22T12:14:34.900Z,33.09
2018-07-22T12:15:34.903Z,32.96
2018-07-22T12:16:34.880Z,32.99
2018-07-22T12:17:34.886Z,32.97
2018-07-22T12:18:34.864Z,32.88
2018-07-22T12:19:34.852Z,32.81
2018-07-22T12:20:34.859Z,32.62
2018-07-22T12:21:34.831Z,32.60
2018-07-22T12:22:34.834Z,32.75
2018-07-22T12:23:34.825Z,32.87
2018-07-22T12:24:34.825Z,33.00
2018-07-22T12:25:34.796Z,33.07
2018-07-22T12:26:34.784Z,33.12
2018-07-22T12:27:34.775Z,33.12
2018-07-22T12:28:34.766Z,33.00
2018-07-22T12:29:34.758Z,32.77
2018-07-22T12:30:34.764Z,32.67
2018-07-22T12:31:34.752Z,32.47
2018-07-22T12:32:34.729Z,32.50
2018-07-22T12:33:34.721Z,32.50
2018-07-22T12:34:34.710Z,32.55
2018-07-22T12:35:34.715Z,32.63
2018-07-22T12:36:34.690Z,32.52
2018-07-22T12:37:34.693Z,32.40
2018-07-22T12:38:34.670Z,32.43
2018-07-22T12:39:34.662Z,32.62
2018-07-22T12:40:34.679Z,32.78
2018-07-22T12:41:34.641Z,32.88
2018-07-22T12:42:34.629Z,33.07
2018-07-22T12:43:34.619Z,33.14
2018-07-22T12:44:34.610Z,33.38
2018-07-22T12:45:34.602Z,33.54
2018-07-22T12:46:34.635Z,33.81
2018-07-22T12:47:34.583Z,33.86
2018-07-22T12:48:34.576Z,33.69
2018-07-22T12:49:34.580Z,33.76
2018-07-22T12:50:34.569Z,33.72
2018-07-22T12:51:34.548Z,33.61
2018-07-22T12:52:34.557Z,33.38